Garrison, North Dakota
Current Conditions -  °F | °C
As of 11:35 AM on Thursday 20 Nov 2014 (Local Time) from KHZE Reporting Station
Broken Clouds Broken Clouds  
Wind Chill:   Ceiling: 1600
Heat Index: 16°   Visibility: 10mi
Dew Point:   Wind: 8mph
Humidity: 68%   Direction: 210°SSW
Pressure: 30.08"   Gusts: NA
Location:  47.65°N, 101.42°W
Report Text: KHZE 201735Z AUTO 21007KT 10SM BKN016 M09/M14 A3008 RMK AO2
Loading
Personal Weather Stations






























Interactive Weather Map New forecast layout! Learn more

10-Day Weather Forecast

Advertisements
Track Severe Weather on mobile